Time;durP1;ratioP1;P1;durP2;ratioP2;P2;SDS_P1;SDS_P2;PMS_P1;PMS_P2;Temp;Humidity;BMP_temperature;BMP_pressure;BME280_temperature;BME280_humidity;BME280_pressure;Samples;Min_cycle;Max_cycle;Signal;HPM_P1;HPM_P2
2023/07/03 00:01:51;;;;;;;12.82;5.97;;;16.40;99.90;;;;;;6240145;22;20472;-38
2023/07/03 00:04:18;;;;;;;11.45;5.63;;;16.40;99.90;;;;;;6240907;23;20023;-37
2023/07/03 00:06:45;;;;;;;12.90;5.85;;;16.40;99.90;;;;;;6239791;23;20058;-33
2023/07/03 00:09:11;;;;;;;16.95;5.95;;;16.40;99.90;;;;;;6213065;23;20023;-37
2023/07/03 00:11:37;;;;;;;16.15;6.05;;;16.40;99.90;;;;;;6239299;22;20012;-36
2023/07/03 00:14:02;;;;;;;14.00;6.13;;;16.40;99.90;;;;;;6240403;23;20004;-36
2023/07/03 00:16:28;;;;;;;16.65;6.13;;;16.30;99.90;;;;;;6241510;23;20012;-35
2023/07/03 00:18:53;;;;;;;18.10;6.53;;;16.30;99.90;;;;;;6240893;23;20088;-39
2023/07/03 00:21:19;;;;;;;14.23;6.10;;;16.30;99.90;;;;;;6212591;23;20016;-36
2023/07/03 00:23:45;;;;;;;13.90;6.32;;;16.30;99.90;;;;;;6240396;22;20012;-36
2023/07/03 00:26:11;;;;;;;15.50;6.38;;;16.30;99.90;;;;;;6240414;23;20459;-40
2023/07/03 00:28:37;;;;;;;14.40;6.28;;;16.30;99.90;;;;;;6213333;23;20023;-39
2023/07/03 00:31:02;;;;;;;15.70;6.38;;;16.20;99.90;;;;;;6240351;23;20012;-36
2023/07/03 00:33:28;;;;;;;13.95;6.00;;;16.20;99.90;;;;;;6240637;22;20066;-37
2023/07/03 00:35:53;;;;;;;14.88;5.68;;;16.20;99.90;;;;;;6240021;23;20012;-35
2023/07/03 00:38:20;;;;;;;13.10;5.97;;;16.20;99.90;;;;;;6241214;23;20405;-33
2023/07/03 00:40:45;;;;;;;15.57;6.20;;;16.20;99.90;;;;;;6240733;23;20023;-36
2023/07/03 00:43:13;;;;;;;11.70;5.65;;;16.20;99.90;;;;;;6241071;22;20016;-32
2023/07/03 00:45:39;;;;;;;15.60;5.57;;;16.10;99.90;;;;;;6242635;23;20378;-34
2023/07/03 00:48:05;;;;;;;15.70;5.95;;;16.10;99.90;;;;;;6242836;23;20070;-33
2023/07/03 00:50:34;;;;;;;12.27;6.20;;;16.10;99.90;;;;;;6240021;22;20443;-33
2023/07/03 00:57:40;;;;;;;;;;;;;;;;;;;;;
2023/07/03 01:00:56;;;;;;;;;;;;;;;;;;;;;
2023/07/03 01:12:25;;;;;;;16.48;6.18;;;16.10;99.90;;;;;;6060488;23;20025;-34
2023/07/03 01:47:05;;;;;;;18.25;6.43;;;16.10;99.90;;;;;;6003271;23;20079;-33
2023/07/03 02:04:11;;;;;;;19.08;5.85;;;16.10;99.90;;;;;;6132597;23;20028;-33
2023/07/03 02:22:56;;;;;;;13.80;6.28;;;16.10;99.90;;;;;;6102060;23;20028;-35
2023/07/03 02:25:52;;;;;;;23.08;6.07;;;16.00;99.90;;;;;;6239760;23;20055;-34
2023/07/03 02:36:14;;;;;;;14.50;5.50;;;16.10;99.90;;;;;;6002297;23;20143;-36
2023/07/03 02:52:00;;;;;;;20.65;6.53;;;16.10;99.90;;;;;;5124612;27;20425;-31
2023/07/03 03:02:38;;;;;;;25.55;6.07;;;16.00;99.90;;;;;;5014925;28;20060;-31
2023/07/03 03:12:48;;;;;;;15.48;5.10;;;15.80;99.90;;;;;;4942884;29;20042;-31
2023/07/03 03:22:40;;;;;;;16.55;5.80;;;15.70;99.90;;;;;;4913351;29;20078;-31
2023/07/03 03:25:24;;;;;;;20.77;5.70;;;15.60;99.90;;;;;;4945613;29;20035;-31
2023/07/03 04:20:36;;;;;;;;;;;;;;;;;;;;;
2023/07/03 04:24:07;;;;;;;16.88;6.47;;;14.70;99.90;;;;;;5068873;28;20044;-31
2023/07/03 04:38:20;;;;;;;;;;;;;;;;;;;;;
2023/07/03 04:45:21;;;;;;;11.40;5.13;;;14.70;99.90;;;;;;4968440;28;20117;-31
2023/07/03 04:52:04;;;;;;;11.68;5.65;;;14.70;99.90;;;;;;4978629;28;20061;-31
2023/07/03 04:55:12;;;;;;;13.68;5.85;;;14.70;99.90;;;;;;4945221;28;20438;-31
2023/07/03 04:57:46;;;;;;;15.38;5.57;;;14.80;99.90;;;;;;4938878;29;20047;-31
2023/07/03 05:00:58;;;;;;;;;;;;;;;;;;;;;
2023/07/03 05:04:18;;;;;;;16.00;5.72;;;14.90;99.90;;;;;;4979084;28;20772;-31
2023/07/03 05:07:53;;;;;;;12.65;4.90;;;14.90;99.90;;;;;;4987852;28;20057;-30
2023/07/03 05:10:24;;;;;;;13.30;5.03;;;15.10;99.90;;;;;;4995429;28;20070;-31
2023/07/03 05:14:30;;;;;;;11.23;4.50;;;15.20;99.90;;;;;;5066325;28;20543;-31
2023/07/03 05:20:35;;;;;;;10.93;4.05;;;15.50;99.90;;;;;;4977938;28;20045;-31
2023/07/03 05:34:21;;;;;;;10.05;4.43;;;15.50;99.90;;;;;;4838805;28;20436;-33
2023/07/03 05:37:09;;;;;;;10.48;4.22;;;15.50;99.90;;;;;;4992836;28;20087;-32
2023/07/03 05:39:37;;;;;;;10.90;4.05;;;15.60;99.90;;;;;;5047442;28;20119;-32
2023/07/03 05:42:03;;;;;;;8.85;3.55;;;15.60;99.90;;;;;;5039711;28;20063;-32
2023/07/03 05:44:29;;;;;;;13.18;4.20;;;15.70;99.90;;;;;;5052885;28;20489;-32
2023/07/03 05:46:54;;;;;;;14.35;4.72;;;15.80;99.90;;;;;;5075699;28;20115;-33
2023/07/03 05:49:20;;;;;;;13.23;5.22;;;15.90;99.90;;;;;;5084210;28;20040;-32
2023/07/03 05:51:46;;;;;;;11.38;4.15;;;16.00;99.90;;;;;;5065293;28;20118;-32
2023/07/03 05:54:16;;;;;;;12.07;3.80;;;16.10;99.90;;;;;;5079397;28;20465;-32
2023/07/03 05:56:43;;;;;;;9.32;3.25;;;16.20;99.90;;;;;;5077473;28;20036;-32
2023/07/03 05:59:08;;;;;;;11.65;4.22;;;16.30;99.90;;;;;;5073993;28;20032;-37
2023/07/03 06:01:34;;;;;;;12.85;3.88;;;16.40;99.90;;;;;;5065544;28;20116;-36
2023/07/03 06:04:07;;;;;;;11.48;3.45;;;16.60;99.90;;;;;;5068778;28;20036;-32
2023/07/03 06:06:53;;;;;;;12.98;3.88;;;16.70;99.90;;;;;;5069411;28;20463;-33
2023/07/03 06:09:39;;;;;;;14.13;3.78;;;16.80;99.90;;;;;;5064437;28;20032;-33
2023/07/03 06:12:05;;;;;;;10.73;3.25;;;16.90;99.90;;;;;;5062893;28;20326;-32
2023/07/03 06:14:34;;;;;;;7.60;2.80;;;16.90;99.90;;;;;;5069116;28;20600;-32
2023/07/03 06:17:00;;;;;;;10.23;3.28;;;16.90;99.90;;;;;;5059823;28;20040;-33
2023/07/03 06:19:27;;;;;;;9.38;2.85;;;16.90;99.90;;;;;;5078633;28;20051;-34
2023/07/03 06:21:54;;;;;;;5.95;2.20;;;17.10;99.90;;;;;;5071801;28;20093;-32
2023/07/03 06:24:20;;;;;;;11.07;2.72;;;17.20;99.90;;;;;;5059550;28;20098;-34
2023/07/03 06:26:49;;;;;;;5.60;2.08;;;17.10;99.90;;;;;;5049007;28;20044;-35
2023/07/03 06:29:15;;;;;;;8.85;2.72;;;17.00;99.90;;;;;;5063401;28;20040;-32
2023/07/03 06:31:48;;;;;;;6.43;2.22;;;17.00;99.90;;;;;;5049283;28;20044;-33
2023/07/03 06:34:13;;;;;;;8.73;2.60;;;16.90;99.90;;;;;;5047080;28;20505;-36
2023/07/03 06:36:39;;;;;;;7.00;2.85;;;16.90;99.90;;;;;;5066024;28;20025;-33
2023/07/03 06:39:05;;;;;;;8.23;2.55;;;17.00;99.90;;;;;;5067077;28;20080;-33
2023/07/03 06:41:33;;;;;;;8.80;2.63;;;17.00;99.90;;;;;;5064986;28;20036;-36
2023/07/03 06:43:59;;;;;;;6.95;2.75;;;17.10;99.90;;;;;;5074667;28;20047;-33
2023/07/03 06:46:25;;;;;;;7.30;2.47;;;17.20;99.90;;;;;;5073509;28;20408;-33
2023/07/03 06:48:52;;;;;;;6.88;2.28;;;17.20;99.90;;;;;;5094867;22;20081;-84
2023/07/03 06:51:18;;;;;;;8.57;2.05;;;17.30;99.90;;;;;;5051893;28;20037;-84
2023/07/03 06:53:44;;;;;;;7.53;2.20;;;17.30;99.90;;;;;;5032152;28;20033;-84
2023/07/03 06:56:09;;;;;;;6.47;2.30;;;17.30;99.90;;;;;;5066790;28;20052;-83
2023/07/03 06:58:35;;;;;;;6.07;1.92;;;17.50;99.90;;;;;;5051166;28;20065;-85
2023/07/03 07:01:12;;;;;;;7.50;2.33;;;17.60;99.90;;;;;;5036914;28;20040;-84
2023/07/03 07:03:39;;;;;;;9.48;2.30;;;17.70;99.90;;;;;;5053580;28;20033;-85
2023/07/03 07:06:13;;;;;;;6.40;2.20;;;17.80;99.90;;;;;;5034737;28;20028;-84
2023/07/03 07:08:39;;;;;;;7.45;2.63;;;17.80;99.90;;;;;;5049795;28;20040;-82
2023/07/03 07:11:14;;;;;;;7.50;2.40;;;17.70;99.90;;;;;;5034366;28;20090;-84
2023/07/03 07:13:41;;;;;;;6.72;2.20;;;17.60;99.90;;;;;;5036571;28;20043;-84
2023/07/03 07:16:24;;;;;;;6.85;2.42;;;17.60;99.90;;;;;;5059436;28;20082;-84
2023/07/03 07:18:55;;;;;;;9.35;2.20;;;17.60;99.90;;;;;;5059681;28;20131;-85
2023/07/03 07:21:22;;;;;;;5.65;2.50;;;17.50;99.90;;;;;;5046765;28;20040;-85
2023/07/03 07:23:55;;;;;;;7.88;2.50;;;17.50;99.90;;;;;;5048511;28;20040;-85
2023/07/03 07:26:22;;;;;;;9.52;2.10;;;17.60;99.90;;;;;;5037135;28;20089;-85
2023/07/03 07:28:48;;;;;;;6.50;2.00;;;17.70;99.90;;;;;;5054958;28;20036;-85
2023/07/03 07:31:19;;;;;;;7.10;2.03;;;17.80;99.90;;;;;;5035790;28;20073;-83
2023/07/03 07:33:45;;;;;;;9.32;2.78;;;17.90;99.90;;;;;;5047148;28;20100;-84
2023/07/03 07:36:15;;;;;;;8.52;2.53;;;17.90;99.90;;;;;;5035430;28;20123;-85
2023/07/03 07:38:41;;;;;;;10.23;2.55;;;17.80;99.90;;;;;;5036418;28;20045;-85
2023/07/03 07:41:07;;;;;;;8.85;2.53;;;17.70;99.90;;;;;;5031715;28;20033;-84
2023/07/03 07:43:32;;;;;;;6.68;2.30;;;17.70;99.90;;;;;;5055143;28;20390;-83
2023/07/03 07:45:58;;;;;;;8.40;2.78;;;17.60;99.90;;;;;;5069864;28;20040;-84
2023/07/03 07:48:25;;;;;;;9.02;2.78;;;17.50;99.90;;;;;;5051045;28;20044;-84
2023/07/03 07:50:51;;;;;;;7.15;2.63;;;17.60;99.90;;;;;;5054240;28;20048;-82
2023/07/03 07:53:17;;;;;;;9.18;2.75;;;17.80;99.90;;;;;;5054778;28;20513;-83
2023/07/03 07:55:43;;;;;;;7.95;2.30;;;18.10;99.90;;;;;;5053946;28;20501;-84
2023/07/03 07:58:08;;;;;;;8.05;2.47;;;18.40;99.90;;;;;;5057942;28;20082;-83
2023/07/03 08:00:34;;;;;;;8.65;2.35;;;18.80;99.90;;;;;;5053127;28;20043;-83
2023/07/03 08:03:00;;;;;;;7.05;2.38;;;18.90;99.90;;;;;;5040461;28;20036;-83
2023/07/03 08:05:25;;;;;;;6.47;2.03;;;19.10;99.90;;;;;;5051878;28;20114;-86
2023/07/03 08:07:52;;;;;;;9.15;2.30;;;19.20;99.90;;;;;;5054668;28;20395;-85
2023/07/03 08:10:18;;;;;;;3.90;1.77;;;19.30;99.90;;;;;;5054218;28;20087;-85
2023/07/03 08:12:45;;;;;;;4.45;1.63;;;19.50;99.90;;;;;;5053939;28;20040;-84
2023/07/03 08:15:11;;;;;;;8.43;1.88;;;19.70;99.90;;;;;;5033213;28;20032;-82
2023/07/03 08:17:37;;;;;;;4.47;1.50;;;19.80;99.90;;;;;;5053471;28;20089;-84
2023/07/03 08:20:09;;;;;;;5.93;1.95;;;19.80;99.90;;;;;;5054352;28;20394;-84
2023/07/03 08:22:34;;;;;;;3.75;1.50;;;19.70;99.90;;;;;;5060399;28;20497;-84
2023/07/03 08:25:00;;;;;;;5.32;1.10;;;19.60;99.90;;;;;;5034784;28;20136;-84
2023/07/03 08:27:25;;;;;;;5.53;1.80;;;19.30;99.90;;;;;;5037062;28;20067;-83
2023/07/03 08:29:51;;;;;;;4.28;1.27;;;19.30;99.90;;;;;;5070659;28;20036;-84
2023/07/03 08:32:16;;;;;;;3.72;1.50;;;19.40;99.90;;;;;;5053523;28;20051;-84
2023/07/03 08:34:42;;;;;;;5.55;1.40;;;19.60;99.90;;;;;;5053669;28;20036;-84
2023/07/03 08:37:08;;;;;;;4.53;1.40;;;19.80;99.90;;;;;;5033788;28;20035;-84
2023/07/03 08:39:38;;;;;;;4.38;1.45;;;20.00;98.80;;;;;;5051023;28;20044;-84
2023/07/03 08:42:14;;;;;;;4.72;1.40;;;20.10;96.30;;;;;;5025276;28;20045;-84
2023/07/03 08:44:40;;;;;;;4.07;1.63;;;20.30;95.60;;;;;;5040705;28;20041;-85
2023/07/03 08:47:11;;;;;;;4.85;1.45;;;20.30;96.00;;;;;;5036779;28;20071;-84
2023/07/03 08:49:38;;;;;;;3.40;1.52;;;20.60;95.60;;;;;;5053135;28;20047;-84
2023/07/03 08:52:06;;;;;;;3.88;1.48;;;20.70;95.60;;;;;;5054602;28;20401;-88
2023/07/03 08:54:35;;;;;;;5.38;1.45;;;20.80;94.50;;;;;;5033920;28;20069;-85
2023/07/03 08:57:03;;;;;;;5.72;1.80;;;20.90;94.00;;;;;;5053465;28;20032;-84
2023/07/03 08:59:29;;;;;;;3.88;1.48;;;21.10;93.50;;;;;;5052139;28;20052;-84
2023/07/03 09:02:05;;;;;;;4.70;1.50;;;21.20;93.30;;;;;;5055661;28;20032;-84
2023/07/03 09:04:52;;;;;;;5.80;1.83;;;21.30;88.00;;;;;;5053867;28;20048;-84
2023/07/03 09:07:35;;;;;;;4.03;1.73;;;21.30;84.90;;;;;;5065288;28;20040;-82
2023/07/03 09:10:01;;;;;;;4.82;1.58;;;21.30;83.00;;;;;;5032599;28;20037;-85
2023/07/03 09:12:59;;;;;;;6.32;1.45;;;21.20;86.30;;;;;;5046664;28;20044;-83
2023/07/03 09:15:43;;;;;;;3.45;1.80;;;21.10;83.90;;;;;;5049691;28;20039;-84
2023/07/03 09:18:16;;;;;;;4.00;1.40;;;20.70;84.60;;;;;;5053155;28;20032;-83
2023/07/03 09:20:43;;;;;;;4.03;1.50;;;20.80;85.30;;;;;;5024388;28;20076;-84
2023/07/03 09:23:18;;;;;;;4.00;1.60;;;21.00;86.40;;;;;;5024768;28;20499;-83
2023/07/03 09:25:51;;;;;;;4.60;1.45;;;21.00;85.30;;;;;;5053189;28;20127;-84
2023/07/03 09:28:17;;;;;;;7.40;1.70;;;20.90;83.20;;;;;;5047363;28;20049;-83
2023/07/03 09:30:43;;;;;;;5.60;2.15;;;20.70;83.50;;;;;;5043344;28;20045;-83
2023/07/03 09:33:09;;;;;;;8.40;2.03;;;20.50;85.00;;;;;;5032698;28;20036;-83
2023/07/03 09:35:43;;;;;;;7.93;1.90;;;20.20;85.70;;;;;;5052120;28;20039;-83
2023/07/03 09:38:15;;;;;;;7.47;2.17;;;20.10;87.30;;;;;;5052546;28;20062;-82
2023/07/03 09:40:45;;;;;;;7.07;1.90;;;20.10;87.30;;;;;;5052213;28;20482;-83
2023/07/03 09:43:24;;;;;;;7.47;2.22;;;20.10;89.30;;;;;;5046650;28;20052;-83
2023/07/03 09:46:07;;;;;;;7.28;1.80;;;20.00;87.80;;;;;;5053151;28;20082;-84
2023/07/03 09:48:34;;;;;;;9.43;2.08;;;19.90;90.50;;;;;;5036340;28;20040;-82
2023/07/03 09:51:03;;;;;;;7.55;2.20;;;19.80;90.80;;;;;;5050412;28;20041;-83
2023/07/03 09:53:30;;;;;;;6.00;2.10;;;20.10;91.40;;;;;;5054670;28;20039;-82
2023/07/03 09:55:58;;;;;;;7.20;2.25;;;20.10;91.30;;;;;;5051063;28;20036;-85
2023/07/03 09:58:26;;;;;;;7.43;2.22;;;20.00;92.00;;;;;;5042237;28;20119;-83
2023/07/03 10:00:57;;;;;;;5.25;1.90;;;19.90;92.80;;;;;;5039068;28;20044;-82
2023/07/03 10:03:29;;;;;;;5.97;1.90;;;19.80;93.50;;;;;;5038010;28;20047;-83
2023/07/03 10:05:56;;;;;;;5.70;2.17;;;19.50;93.80;;;;;;5053647;28;20606;-83
2023/07/03 10:08:26;;;;;;;5.15;1.83;;;19.40;94.10;;;;;;5037056;28;20082;-84
2023/07/03 10:10:55;;;;;;;8.20;2.05;;;19.30;94.10;;;;;;5051822;28;20102;-85
2023/07/03 10:13:28;;;;;;;6.85;1.85;;;20.00;95.10;;;;;;5052607;28;20183;-84
2023/07/03 10:15:55;;;;;;;;;;;20.30;95.30;;;;;;5057273;28;20032;-85
2023/07/03 10:18:30;;;;;;;7.60;1.85;;;20.20;91.80;;;;;;5031340;28;19920;-84
2023/07/03 10:20:58;;;;;;;3.35;1.40;;;20.10;93.70;;;;;;5061491;28;20067;-88
2023/07/03 10:23:32;;;;;;;4.53;1.50;;;20.00;92.30;;;;;;5065609;28;20040;-89
2023/07/03 10:26:12;;;;;;;4.07;1.60;;;20.00;90.40;;;;;;5034482;28;20035;-87
2023/07/03 10:28:46;;;;;;;3.78;1.77;;;20.30;90.10;;;;;;5067187;28;20034;-85
2023/07/03 10:31:15;;;;;;;;;;;20.40;89.50;;;;;;5045719;28;20217;-86
2023/07/03 10:33:46;;;;;;;4.15;1.25;;;20.30;85.50;;;;;;5069966;28;19920;-83
2023/07/03 10:36:26;;;;;;;4.90;1.60;;;20.10;87.30;;;;;;5037043;28;20367;-82
2023/07/03 10:39:16;;;;;;;3.58;1.20;;;19.90;85.70;;;;;;5037141;28;20036;-82
2023/07/03 10:41:49;;;;;;;4.47;1.17;;;19.70;84.60;;;;;;5046423;28;20045;-82
2023/07/03 10:44:23;;;;;;;4.13;1.42;;;19.90;88.60;;;;;;5057294;28;20092;-81
2023/07/03 10:47:04;;;;;;;6.20;1.50;;;20.60;89.00;;;;;;5055054;28;20090;-81
2023/07/03 10:49:32;;;;;;;3.88;1.38;;;21.00;86.80;;;;;;5043761;28;20509;-82
2023/07/03 10:52:23;;;;;;;4.05;1.73;;;21.30;84.70;;;;;;5036307;28;20410;-81
2023/07/03 10:55:11;;;;;;;3.42;1.70;;;21.70;77.40;;;;;;5051973;28;20055;-84
2023/07/03 10:57:53;;;;;;;5.38;1.38;;;22.30;77.30;;;;;;5049405;28;20044;-83
2023/07/03 11:00:41;;;;;;;4.80;1.70;;;22.30;71.40;;;;;;5035880;28;20120;-85
2023/07/03 11:03:35;;;;;;;5.75;1.65;;;22.20;70.40;;;;;;5052189;28;20040;-84
2023/07/03 11:06:19;;;;;;;6.07;1.77;;;21.90;71.30;;;;;;5053780;28;20036;-83
2023/07/03 11:08:48;;;;;;;;;;;21.90;71.10;;;;;;5038122;28;20045;-84
2023/07/03 11:11:35;;;;;;;5.97;1.55;;;21.80;67.00;;;;;;5033175;28;20409;-82
2023/07/03 11:14:26;;;;;;;4.20;1.48;;;21.50;68.30;;;;;;5056644;28;20032;-84
2023/07/03 11:17:24;;;;;;;3.75;1.58;;;21.30;69.80;;;;;;5057791;28;20085;-82
2023/07/03 11:20:05;;;;;;;4.43;1.65;;;21.20;70.20;;;;;;4985258;28;20045;-86
2023/07/03 11:22:47;;;;;;;3.92;1.52;;;21.40;70.50;;;;;;5043359;28;20041;-85
2023/07/03 11:25:41;;;;;;;2.80;1.30;;;21.80;69.20;;;;;;5037326;28;20044;-83
2023/07/03 11:28:25;;;;;;;4.03;1.48;;;22.30;67.00;;;;;;5051976;28;20111;-86
2023/07/03 11:30:52;;;;;;;5.97;2.00;;;22.90;67.20;;;;;;5055680;28;20044;-85
2023/07/03 11:33:21;;;;;;;3.30;1.23;;;23.00;66.70;;;;;;5039762;28;20056;-87
2023/07/03 11:35:54;;;;;;;5.10;1.50;;;23.10;65.50;;;;;;5038977;28;20040;-84
2023/07/03 11:38:20;;;;;;;4.80;1.70;;;22.90;62.50;;;;;;5039315;28;20127;-86
2023/07/03 11:40:55;;;;;;;4.50;1.45;;;22.40;63.60;;;;;;5038715;28;20034;-85
2023/07/03 11:43:32;;;;;;;4.60;1.50;;;22.10;65.50;;;;;;5056261;28;20037;-88
2023/07/03 11:45:57;;;;;;;4.90;1.13;;;21.80;66.60;;;;;;5032046;28;20148;-85
2023/07/03 11:48:30;;;;;;;3.55;1.30;;;21.60;67.50;;;;;;5040256;28;20171;-86
2023/07/03 11:50:59;;;;;;;4.85;1.38;;;21.90;66.90;;;;;;5051144;28;20433;-86
2023/07/03 11:53:31;;;;;;;3.33;1.25;;;21.90;68.00;;;;;;5054444;28;20036;-85
2023/07/03 11:55:57;;;;;;;6.70;1.58;;;21.70;67.30;;;;;;5053691;28;20039;-86
2023/07/03 11:58:30;;;;;;;2.13;1.00;;;21.60;67.50;;;;;;5054789;28;20127;-87
2023/07/03 12:01:20;;;;;;;3.28;1.08;;;21.40;67.50;;;;;;5052335;28;20116;-87
2023/07/03 12:03:52;;;;;;;3.15;1.10;;;21.40;66.90;;;;;;5033028;28;20071;-86
2023/07/03 12:06:39;;;;;;;4.60;1.50;;;21.80;69.10;;;;;;5038034;28;20038;-86
2023/07/03 12:09:18;;;;;;;4.03;1.55;;;21.90;69.10;;;;;;5056454;28;20111;-85
2023/07/03 12:11:59;;;;;;;4.13;1.35;;;22.80;69.10;;;;;;5054438;28;20056;-85
2023/07/03 12:14:56;;;;;;;3.63;1.60;;;23.20;64.40;;;;;;5036556;28;20033;-84
2023/07/03 12:17:34;;;;;;;3.08;1.20;;;23.10;61.90;;;;;;5037731;28;20044;-85
2023/07/03 12:20:16;;;;;;;7.22;1.30;;;22.60;61.20;;;;;;5040663;28;20040;-85
2023/07/03 12:22:50;;;;;;;3.15;0.88;;;22.10;58.10;;;;;;5059077;28;20044;-86
2023/07/03 12:25:25;;;;;;;4.15;1.48;;;21.50;60.50;;;;;;5052032;28;20119;-87
2023/07/03 12:27:53;;;;;;;4.57;1.42;;;21.20;61.30;;;;;;5053393;28;20063;-86
2023/07/03 12:30:30;;;;;;;5.05;1.65;;;21.00;62.60;;;;;;5054165;28;20028;-86
2023/07/03 12:32:58;;;;;;;4.68;1.60;;;20.80;63.60;;;;;;5041074;28;20052;-86
2023/07/03 12:35:34;;;;;;;3.80;1.48;;;20.90;64.90;;;;;;5037390;28;20040;-86
2023/07/03 12:38:05;;;;;;;2.30;0.95;;;21.00;64.70;;;;;;5047087;28;20465;-87
2023/07/03 12:40:31;;;;;;;5.85;1.65;;;21.10;65.40;;;;;;5041206;28;20075;-86
2023/07/03 12:43:00;;;;;;;4.30;1.30;;;21.00;65.80;;;;;;5043569;28;20068;-87
2023/07/03 12:45:28;;;;;;;2.53;1.50;;;20.70;65.90;;;;;;5053249;28;20409;-87
2023/07/03 12:48:07;;;;;;;6.30;1.83;;;20.40;66.60;;;;;;5029671;28;20086;-88
2023/07/03 12:50:49;;;;;;;4.25;1.40;;;20.10;68.40;;;;;;5053022;28;20042;-90
2023/07/03 12:53:15;;;;;;;3.28;1.40;;;19.90;69.60;;;;;;5057094;28;20036;-88
2023/07/03 12:55:44;;;;;;;5.65;1.58;;;19.70;70.20;;;;;;5035720;28;20029;-88
2023/07/03 12:58:11;;;;;;;4.55;1.65;;;19.50;71.90;;;;;;5045042;28;20037;-89
2023/07/03 13:00:37;;;;;;;2.83;1.15;;;19.30;72.80;;;;;;5052057;28;20041;-88
2023/07/03 13:03:13;;;;;;;4.25;1.65;;;19.20;73.50;;;;;;5060183;28;20521;-89
2023/07/03 13:05:39;;;;;;;8.27;1.85;;;19.10;72.90;;;;;;5037644;28;20051;-92
2023/07/03 13:08:12;;;;;;;3.30;1.60;;;18.90;74.00;;;;;;5057527;28;20028;-88
2023/07/03 13:10:38;;;;;;;5.68;1.67;;;18.80;75.50;;;;;;5055274;28;20524;-89
2023/07/03 13:13:19;;;;;;;4.70;1.73;;;18.80;76.60;;;;;;5052801;28;20147;-87
2023/07/03 13:15:45;;;;;;;7.53;1.95;;;18.80;78.00;;;;;;5040017;28;20110;-88
2023/07/03 13:18:15;;;;;;;6.85;1.80;;;18.80;78.30;;;;;;5053419;28;20058;-89
2023/07/03 13:20:57;;;;;;;6.30;1.83;;;18.70;80.20;;;;;;5036976;28;20506;-88
2023/07/03 13:23:36;;;;;;;5.82;1.67;;;18.70;83.80;;;;;;5055442;28;20044;-89
2023/07/03 13:26:08;;;;;;;5.53;1.50;;;18.70;83.00;;;;;;5030543;28;20395;-87
2023/07/03 13:28:51;;;;;;;6.05;1.80;;;18.60;81.40;;;;;;5036189;28;20537;-88
2023/07/03 13:31:16;;;;;;;7.07;1.95;;;18.50;79.70;;;;;;5040883;28;20049;-89
2023/07/03 13:34:06;;;;;;;3.78;1.55;;;18.40;80.20;;;;;;5052269;28;20052;-89
2023/07/03 13:36:37;;;;;;;3.08;1.30;;;18.30;82.00;;;;;;5037040;28;20063;-88
2023/07/03 13:39:10;;;;;;;5.57;1.50;;;18.10;83.10;;;;;;5053027;28;20170;-88
2023/07/03 13:41:37;;;;;;;6.60;2.00;;;18.10;84.60;;;;;;5061926;28;20047;-88
2023/07/03 13:44:06;;;;;;;4.85;1.50;;;18.10;86.60;;;;;;5048352;28;20138;-87
2023/07/03 13:46:33;;;;;;;5.57;1.60;;;18.10;90.00;;;;;;5032862;28;20151;-87
2023/07/03 13:48:59;;;;;;;5.53;1.67;;;18.00;90.60;;;;;;5036430;28;20482;-88
2023/07/03 13:51:25;;;;;;;6.88;2.05;;;18.00;91.70;;;;;;5068583;28;20082;-87
2023/07/03 13:53:51;;;;;;;6.88;2.60;;;18.00;92.90;;;;;;5052609;28;20611;-85
2023/07/03 13:56:18;;;;;;;8.52;2.00;;;18.00;94.30;;;;;;5051799;28;20028;-86
2023/07/03 13:58:44;;;;;;;4.70;1.73;;;18.00;94.40;;;;;;5036065;28;20043;-87
2023/07/03 14:01:09;;;;;;;7.70;1.63;;;18.00;94.90;;;;;;5052585;28;20033;-86
2023/07/03 14:03:36;;;;;;;4.85;1.70;;;18.10;94.90;;;;;;5032655;28;20467;-85
2023/07/03 14:06:02;;;;;;;4.15;1.50;;;18.20;95.00;;;;;;5037013;28;20490;-87
2023/07/03 14:08:28;;;;;;;6.40;1.48;;;18.20;94.80;;;;;;5052850;28;20036;-86
2023/07/03 14:10:54;;;;;;;4.90;1.50;;;18.20;94.70;;;;;;5042232;28;20044;-86
2023/07/03 14:13:20;;;;;;;6.20;2.05;;;18.20;94.50;;;;;;5052284;28;20044;-87
2023/07/03 14:15:47;;;;;;;5.63;2.20;;;18.10;94.90;;;;;;5069537;28;20391;-85
2023/07/03 14:18:12;;;;;;;5.50;1.70;;;17.90;95.50;;;;;;5035614;28;20081;-86
2023/07/03 14:20:38;;;;;;;5.32;1.60;;;17.90;96.60;;;;;;5035205;28;20032;-85
2023/07/03 14:23:05;;;;;;;6.45;1.50;;;17.80;99.20;;;;;;5051378;28;20028;-86
2023/07/03 14:25:31;;;;;;;4.22;1.50;;;17.60;99.90;;;;;;5069954;28;20090;-87
2023/07/03 14:27:58;;;;;;;4.57;1.80;;;17.40;99.90;;;;;;5035101;28;20162;-86
2023/07/03 14:30:25;;;;;;;5.13;1.88;;;17.30;99.90;;;;;;5047112;28;20033;-85
2023/07/03 14:32:51;;;;;;;6.70;1.80;;;17.10;99.90;;;;;;5069331;28;20270;-86
2023/07/03 14:35:16;;;;;;;4.47;1.70;;;16.90;99.90;;;;;;5050458;28;20494;-86
2023/07/03 14:37:42;;;;;;;5.35;1.70;;;16.70;99.90;;;;;;5051603;28;20039;-87
2023/07/03 14:40:09;;;;;;;4.45;1.58;;;16.50;99.90;;;;;;5052307;28;20040;-87
2023/07/03 14:42:35;;;;;;;3.17;1.40;;;16.40;99.90;;;;;;5050989;28;20089;-87
2023/07/03 14:45:01;;;;;;;5.10;1.77;;;16.30;99.90;;;;;;5033661;28;20047;-86
2023/07/03 14:47:26;;;;;;;5.72;1.60;;;16.30;99.90;;;;;;5052962;28;20127;-87
2023/07/03 14:49:52;;;;;;;6.20;1.73;;;16.20;99.90;;;;;;5026089;28;20065;-87
2023/07/03 14:52:19;;;;;;;7.68;1.65;;;16.20;99.90;;;;;;5042248;28;20501;-86
2023/07/03 14:54:46;;;;;;;6.72;1.73;;;16.10;99.90;;;;;;5053105;28;20041;-86
2023/07/03 14:57:11;;;;;;;3.55;1.65;;;16.20;99.90;;;;;;5035436;28;20043;-86
2023/07/03 14:59:37;;;;;;;4.75;1.90;;;16.20;99.90;;;;;;5034475;28;20044;-89
2023/07/03 15:02:03;;;;;;;3.97;1.70;;;16.20;99.90;;;;;;5051327;28;20055;-83
2023/07/03 15:04:29;;;;;;;4.40;1.40;;;16.20;99.90;;;;;;5069541;28;20040;-82
2023/07/03 15:06:55;;;;;;;2.95;1.60;;;16.30;99.90;;;;;;5056198;28;20432;-81
2023/07/03 15:09:20;;;;;;;3.97;1.70;;;16.30;99.90;;;;;;5050733;28;20566;-84
2023/07/03 15:11:48;;;;;;;4.20;1.77;;;16.40;99.90;;;;;;5025822;28;20048;-86
2023/07/03 15:14:14;;;;;;;7.03;1.83;;;16.40;99.90;;;;;;5043543;28;20051;-86
2023/07/03 15:16:39;;;;;;;3.70;1.67;;;16.40;99.90;;;;;;5030533;28;20032;-87
2023/07/03 15:19:07;;;;;;;4.07;1.75;;;16.50;99.90;;;;;;5047797;28;20406;-86
2023/07/03 15:21:36;;;;;;;5.28;1.70;;;16.50;99.90;;;;;;5048140;28;20028;-86
2023/07/03 15:24:02;;;;;;;7.00;1.75;;;16.80;99.90;;;;;;5045902;28;20422;-87
2023/07/03 15:26:29;;;;;;;5.53;1.60;;;17.20;99.90;;;;;;5042786;28;20032;-91
2023/07/03 15:28:56;;;;;;;4.82;2.05;;;17.60;99.90;;;;;;5045609;28;20414;-85
2023/07/03 15:31:21;;;;;;;4.93;1.83;;;17.80;99.90;;;;;;5028735;28;20044;-84
2023/07/03 15:33:47;;;;;;;8.52;2.22;;;18.30;99.90;;;;;;5038985;28;20546;-83
2023/07/03 15:36:13;;;;;;;4.70;1.58;;;18.80;99.90;;;;;;5030406;28;20058;-84
2023/07/03 15:38:38;;;;;;;6.55;1.95;;;18.80;99.90;;;;;;5049933;28;20043;-84
2023/07/03 15:41:04;;;;;;;7.88;1.90;;;18.60;99.90;;;;;;5056521;28;20047;-83
2023/07/03 15:43:32;;;;;;;5.43;1.80;;;18.40;99.90;;;;;;5055023;28;20045;-84
2023/07/03 15:46:15;;;;;;;7.43;1.67;;;18.20;99.90;;;;;;5070714;28;20107;-85
2023/07/03 15:48:41;;;;;;;4.82;1.90;;;18.00;99.90;;;;;;5037352;28;20033;-85
2023/07/03 15:51:09;;;;;;;4.70;1.60;;;17.80;99.90;;;;;;5037644;28;20033;-85
2023/07/03 15:53:35;;;;;;;5.35;1.75;;;17.70;99.90;;;;;;5035238;28;20047;-85
2023/07/03 15:56:09;;;;;;;8.63;1.90;;;17.80;99.90;;;;;;5048200;28;20078;-85
2023/07/03 15:58:40;;;;;;;5.97;1.73;;;17.80;99.90;;;;;;5054645;28;20037;-85
2023/07/03 16:01:12;;;;;;;4.57;1.73;;;17.80;99.90;;;;;;5038339;28;20033;-86
2023/07/03 16:03:39;;;;;;;6.93;2.00;;;17.80;99.90;;;;;;5038803;28;20032;-87
2023/07/03 16:06:08;;;;;;;7.60;2.30;;;17.90;99.90;;;;;;5058332;28;20036;-86
2023/07/03 16:08:35;;;;;;;7.00;1.77;;;18.00;99.90;;;;;;5059445;28;20051;-85
2023/07/03 16:11:05;;;;;;;4.40;1.50;;;18.10;99.90;;;;;;5058313;28;20037;-86
2023/07/03 16:13:32;;;;;;;7.20;2.50;;;18.30;99.90;;;;;;5063310;28;20036;-85
2023/07/03 16:16:11;;;;;;;4.32;1.98;;;18.60;99.90;;;;;;5077269;28;20025;-86
2023/07/03 16:18:37;;;;;;;6.80;2.10;;;19.20;99.90;;;;;;5074523;28;20036;-86
2023/07/03 16:21:06;;;;;;;6.20;2.28;;;19.90;99.90;;;;;;5059666;28;20069;-86
2023/07/03 16:23:32;;;;;;;4.65;1.80;;;20.70;99.90;;;;;;5042219;28;20575;-86
2023/07/03 16:26:00;;;;;;;8.13;2.28;;;21.60;99.70;;;;;;5059373;28;20555;-86
2023/07/03 16:28:27;;;;;;;6.35;1.95;;;22.60;95.90;;;;;;5035394;28;20074;-86
2023/07/03 16:31:04;;;;;;;6.13;1.77;;;23.40;90.50;;;;;;5060466;28;20139;-86
2023/07/03 16:33:33;;;;;;;4.22;1.90;;;23.70;75.90;;;;;;5059128;28;20097;-87
2023/07/03 16:36:01;;;;;;;4.40;2.13;;;22.90;71.20;;;;;;5045233;28;20036;-85
2023/07/03 16:38:28;;;;;;;7.43;2.35;;;22.20;73.00;;;;;;5054190;28;20068;-86
2023/07/03 16:41:01;;;;;;;6.45;1.95;;;21.50;74.80;;;;;;5079688;28;20036;-87
2023/07/03 16:43:38;;;;;;;5.40;1.92;;;21.50;73.40;;;;;;5046492;28;20032;-85